createdAt,value
2022-08-07T00:01:43.607Z,102111.38
2022-08-07T00:04:04.529Z,102104.53
2022-08-07T00:06:33.494Z,102105.59
2022-08-07T00:09:17.044Z,102107.59
2022-08-07T00:11:54.019Z,102099.69
2022-08-07T00:14:25.554Z,102104.38
2022-08-07T00:16:58.483Z,102093.41
2022-08-07T00:19:26.133Z,102090.31
2022-08-07T00:22:11.608Z,102085.56
2022-08-07T00:24:38.630Z,102085.78
2022-08-07T00:27:07.668Z,102078.97
2022-08-07T00:29:37.144Z,102083.25
2022-08-07T00:32:05.956Z,102081.81
2022-08-07T00:34:35.523Z,102070.16
2022-08-07T00:37:05.063Z,102081.09
2022-08-07T00:39:32.243Z,102086.44
2022-08-07T00:42:02.415Z,102080.47
2022-08-07T00:44:35.503Z,102071.81
2022-08-07T00:47:15.907Z,102083.50
2022-08-07T00:50:21.325Z,102081.94
2022-08-07T00:52:42.214Z,102074.56
2022-08-07T00:55:14.118Z,102079.41
2022-08-07T00:57:55.342Z,102071.06
2022-08-07T01:00:23.326Z,102069.63
2022-08-07T01:02:50.918Z,102070.56
2022-08-07T01:05:19.128Z,102071.63
2022-08-07T01:07:47.074Z,102061.63
2022-08-07T01:10:17.083Z,102061.63
2022-08-07T01:12:53.274Z,102059.84
2022-08-07T01:15:20.372Z,102055.47
2022-08-07T01:17:47.058Z,102057.88
2022-08-07T01:20:16.567Z,102063.84
2022-08-07T01:22:46.672Z,102056.91
2022-08-07T01:25:55.146Z,102051.44
2022-08-07T01:28:07.812Z,102047.38
2022-08-07T01:30:39.102Z,102051.75
2022-08-07T01:33:05.833Z,102057.31
2022-08-07T01:35:53.524Z,102044.00
2022-08-07T01:38:24.802Z,102055.78
2022-08-07T01:40:55.053Z,102052.28
2022-08-07T01:43:22.698Z,102035.41
2022-08-07T01:45:54.297Z,102041.06
2022-08-07T01:48:29.584Z,102044.81
2022-08-07T01:51:08.220Z,102047.56
2022-08-07T01:54:08.424Z,102053.13
2022-08-07T01:57:04.912Z,102050.38
2022-08-07T01:59:49.563Z,102046.22
2022-08-07T02:03:12.585Z,102044.94
2022-08-07T02:05:16.123Z,102048.50
2022-08-07T02:08:04.021Z,102040.00
2022-08-07T02:10:33.696Z,102041.97
2022-08-07T02:13:03.242Z,102048.34
2022-08-07T02:15:31.493Z,102045.72
2022-08-07T02:18:02.847Z,102047.84
2022-08-07T02:20:32.077Z,102045.38
2022-08-07T02:23:05.234Z,102049.09
2022-08-07T02:26:30.414Z,102043.19
2022-08-07T02:28:24.600Z,102042.63
2022-08-07T02:30:54.932Z,102042.84
2022-08-07T02:33:24.838Z,102039.69
2022-08-07T02:36:29.322Z,102038.00
2022-08-07T02:39:01.040Z,102040.91
2022-08-07T02:41:33.493Z,102041.22
2022-08-07T02:44:04.992Z,102035.41
2022-08-07T02:46:34.254Z,102037.41
2022-08-07T02:49:05.244Z,102031.53
2022-08-07T02:51:42.569Z,102037.81
2022-08-07T02:54:25.251Z,102030.03
2022-08-07T02:56:54.834Z,102031.84
2022-08-07T02:59:27.699Z,102039.03
2022-08-07T03:01:56.247Z,102035.63
2022-08-07T03:04:25.586Z,102032.41
2022-08-07T03:06:53.892Z,102037.53
2022-08-07T03:09:44.557Z,102035.09
2022-08-07T03:12:16.141Z,102029.22
2022-08-07T03:14:52.164Z,102029.31
2022-08-07T03:17:22.552Z,102035.47
2022-08-07T03:19:55.238Z,102033.81
2022-08-07T03:22:24.154Z,102045.50
2022-08-07T03:24:57.270Z,102034.59
2022-08-07T03:27:30.849Z,102029.53
2022-08-07T03:30:11.173Z,102032.34
2022-08-07T03:32:49.098Z,102035.25
2022-08-07T03:35:27.526Z,102028.41
2022-08-07T03:38:13.341Z,102020.00
2022-08-07T03:40:44.352Z,102026.47
2022-08-07T03:43:14.569Z,102029.19
2022-08-07T03:45:43.706Z,102026.38
2022-08-07T03:48:14.593Z,102024.50
2022-08-07T03:50:43.181Z,102014.03
2022-08-07T03:54:01.872Z,102014.88
2022-08-07T03:56:11.196Z,102013.38
2022-08-07T03:59:08.283Z,102020.28
2022-08-07T04:01:30.122Z,102016.84
2022-08-07T04:03:59.696Z,102016.19
2022-08-07T04:06:37.424Z,102019.75
2022-08-07T04:09:05.669Z,102014.72
2022-08-07T04:12:26.250Z,102017.94
2022-08-07T04:14:37.060Z,102012.91
2022-08-07T04:17:20.358Z,102017.22
2022-08-07T04:19:52.270Z,102019.94
2022-08-07T04:22:28.699Z,102013.94
2022-08-07T04:24:58.284Z,102027.97
2022-08-07T04:27:26.670Z,102026.38
2022-08-07T04:30:01.433Z,102017.69
2022-08-07T04:32:34.437Z,102026.84
2022-08-07T04:35:05.400Z,102031.88
2022-08-07T04:37:52.842Z,102037.78
2022-08-07T04:40:20.533Z,102047.22
2022-08-07T04:42:51.821Z,102042.66
2022-08-07T04:45:44.416Z,102039.75
2022-08-07T04:48:17.485Z,102039.56
2022-08-07T04:51:00.896Z,102037.50
2022-08-07T04:54:01.449Z,102037.00
2022-08-07T04:58:10.523Z,102030.94
2022-08-07T05:00:12.875Z,102025.59
2022-08-07T05:02:29.682Z,102039.47
2022-08-07T05:05:11.562Z,102038.22
2022-08-07T05:07:48.610Z,102033.44
2022-08-07T05:10:32.280Z,102039.91
2022-08-07T05:14:56.531Z,102044.56
2022-08-07T05:15:58.351Z,102041.16
2022-08-07T05:18:34.429Z,102044.78
2022-08-07T05:21:04.654Z,102044.75
2022-08-07T05:23:40.070Z,102040.91
2022-08-07T05:26:18.767Z,102049.88
2022-08-07T05:28:54.239Z,102055.78
2022-08-07T05:31:35.163Z,102051.66
2022-08-07T05:34:10.994Z,102053.28
2022-08-07T05:36:40.237Z,102053.00
2022-08-07T05:40:04.956Z,102063.81
2022-08-07T05:42:01.209Z,102065.19
2022-08-07T05:44:31.221Z,102063.81
2022-08-07T05:47:01.066Z,102069.13
2022-08-07T05:49:40.408Z,102067.22
2022-08-07T05:52:11.800Z,102072.88
2022-08-07T05:54:53.371Z,102073.16
2022-08-07T05:57:26.667Z,102062.59
2022-08-07T05:59:59.062Z,102067.53
2022-08-07T06:02:29.593Z,102077.34
2022-08-07T06:05:03.474Z,102066.63
2022-08-07T06:08:14.073Z,102076.31
2022-08-07T06:10:18.753Z,102077.97
2022-08-07T06:12:46.965Z,102079.13
2022-08-07T06:15:16.205Z,102077.84
2022-08-07T06:17:53.945Z,102078.44
2022-08-07T06:20:25.588Z,102075.44
2022-08-07T06:23:02.430Z,102079.28
2022-08-07T06:25:54.398Z,102075.75
2022-08-07T06:28:27.708Z,102074.44
2022-08-07T06:30:55.583Z,102074.31
2022-08-07T06:33:22.871Z,102072.00
2022-08-07T06:36:13.026Z,102075.16
2022-08-07T06:38:36.257Z,102076.16
2022-08-07T06:41:09.647Z,102067.75
2022-08-07T06:43:46.618Z,102075.22
2022-08-07T06:46:31.393Z,102066.28
2022-08-07T06:49:04.026Z,102067.31
2022-08-07T06:51:34.911Z,102059.72
2022-08-07T06:55:29.468Z,102062.22
2022-08-07T06:56:51.468Z,102060.09
2022-08-07T07:00:11.415Z,102064.69
2022-08-07T07:02:15.107Z,102057.28
2022-08-07T07:05:02.108Z,102065.88
2022-08-07T07:08:00.387Z,102064.91
2022-08-07T07:10:15.273Z,102059.56
2022-08-07T07:12:57.169Z,102062.03
2022-08-07T07:15:32.585Z,102061.56
2022-08-07T07:18:47.051Z,102064.09
2022-08-07T07:21:27.225Z,102059.13
2022-08-07T07:24:12.518Z,102059.97
2022-08-07T07:26:49.633Z,102061.44
2022-08-07T07:29:40.082Z,102056.47
2022-08-07T07:32:14.011Z,102060.03
2022-08-07T07:34:45.346Z,102058.00
2022-08-07T07:37:21.792Z,102047.03
2022-08-07T07:40:04.147Z,102053.44
2022-08-07T07:42:42.655Z,102053.50
2022-08-07T07:45:16.421Z,102057.66
2022-08-07T07:47:52.704Z,102043.97
2022-08-07T07:50:36.178Z,102043.94
2022-08-07T07:53:20.526Z,102054.72
2022-08-07T07:56:00.821Z,102052.28
2022-08-07T07:58:40.209Z,102053.28
2022-08-07T08:02:02.804Z,102038.72
2022-08-07T08:04:09.642Z,102050.66
2022-08-07T08:06:39.557Z,102034.75
2022-08-07T08:09:08.558Z,102034.00
2022-08-07T08:11:59.909Z,102043.63
2022-08-07T08:14:26.539Z,102027.13
2022-08-07T08:16:54.929Z,102030.66
2022-08-07T08:20:17.029Z,102026.31
2022-08-07T08:22:33.753Z,102031.16
2022-08-07T08:25:41.813Z,102032.19
2022-08-07T08:28:16.964Z,102027.38
2022-08-07T08:30:58.571Z,102027.66
2022-08-07T08:33:33.235Z,102030.38
2022-08-07T08:36:01.653Z,102021.97
2022-08-07T08:38:38.609Z,102029.75
2022-08-07T08:41:58.254Z,102023.78
2022-08-07T08:44:48.477Z,102017.56
2022-08-07T08:47:52.108Z,102018.44
2022-08-07T08:50:39.819Z,102016.78
2022-08-07T08:53:14.846Z,102019.47
2022-08-07T08:56:04.303Z,102008.88
2022-08-07T08:58:50.411Z,102017.72
2022-08-07T09:01:51.051Z,102011.44
2022-08-07T09:04:44.509Z,102011.44
2022-08-07T09:07:24.355Z,102001.03
2022-08-07T09:09:57.530Z,101996.19
2022-08-07T09:12:53.171Z,102005.97
2022-08-07T09:16:24.756Z,102001.34
2022-08-07T09:18:53.053Z,101997.72
2022-08-07T09:22:23.145Z,102004.16
2022-08-07T09:24:55.384Z,101989.81
2022-08-07T09:28:00.758Z,101975.66
2022-08-07T09:30:55.277Z,101998.75
2022-08-07T09:33:56.666Z,101994.28
2022-08-07T09:36:46.926Z,101989.72
2022-08-07T09:39:55.093Z,101992.47
2022-08-07T09:42:33.740Z,101980.94
2022-08-07T09:47:50.517Z,101978.69
2022-08-07T09:48:14.669Z,101984.22
2022-08-07T09:52:10.241Z,101984.00
2022-08-07T09:54:38.282Z,101980.13
2022-08-07T09:57:46.631Z,101973.25
2022-08-07T10:00:16.486Z,101972.47
2022-08-07T10:04:03.019Z,101958.75
2022-08-07T10:06:24.623Z,101954.75
2022-08-07T10:09:59.300Z,101955.28
2022-08-07T10:12:55.059Z,101957.59
2022-08-07T10:15:47.464Z,101961.34
2022-08-07T10:18:45.140Z,101961.50
2022-08-07T10:22:14.904Z,101945.28
2022-08-07T10:24:49.476Z,101948.81
2022-08-07T10:27:46.632Z,101947.84
2022-08-07T10:30:18.791Z,101945.00
2022-08-07T10:33:03.794Z,101945.75
2022-08-07T10:35:55.426Z,101936.97
2022-08-07T10:38:48.670Z,101933.44
2022-08-07T10:41:47.129Z,101935.84
2022-08-07T10:44:37.610Z,101929.84
2022-08-07T10:47:51.415Z,101926.94
2022-08-07T10:50:35.307Z,101926.53
2022-08-07T10:53:08.867Z,101925.69
2022-08-07T10:55:43.214Z,101911.09
2022-08-07T10:58:32.095Z,101915.25
2022-08-07T11:01:35.702Z,101913.47
2022-08-07T11:04:37.745Z,101923.53
2022-08-07T11:07:34.460Z,101913.19
2022-08-07T11:10:07.678Z,101899.00
2022-08-07T11:12:43.346Z,101893.66
2022-08-07T11:15:26.360Z,101889.50
2022-08-07T11:18:10.080Z,101891.31
2022-08-07T11:20:49.736Z,101888.66
2022-08-07T11:23:38.710Z,101878.50
2022-08-07T11:26:17.512Z,101877.50
2022-08-07T11:28:55.232Z,101873.78
2022-08-07T11:31:24.846Z,101882.22
2022-08-07T11:34:10.232Z,101880.34
2022-08-07T11:36:54.131Z,101873.63
2022-08-07T11:39:58.960Z,101874.22
2022-08-07T11:43:09.524Z,101867.94
2022-08-07T11:46:10.033Z,101864.91
2022-08-07T11:49:50.582Z,101867.34
2022-08-07T11:52:19.309Z,101864.13
2022-08-07T11:56:24.823Z,101867.59
2022-08-07T11:58:38.276Z,101873.69
2022-08-07T12:01:05.243Z,101864.97
2022-08-07T12:04:01.606Z,101867.88
2022-08-07T12:06:51.774Z,101870.03
2022-08-07T12:09:42.972Z,101859.41
2022-08-07T12:12:18.631Z,101868.16
2022-08-07T12:15:01.200Z,101863.19
2022-08-07T12:17:38.235Z,101852.44
2022-08-07T12:20:30.606Z,101862.56
2022-08-07T12:24:06.881Z,101859.50
2022-08-07T12:26:42.005Z,101851.09
2022-08-07T12:29:38.204Z,101840.31
2022-08-07T12:32:19.276Z,101836.81
2022-08-07T12:34:49.658Z,101844.28
2022-08-07T12:37:28.541Z,101840.38
2022-08-07T12:40:36.644Z,101837.88
2022-08-07T12:43:09.608Z,101830.06
2022-08-07T12:46:01.305Z,101831.28
2022-08-07T12:48:41.658Z,101827.94
2022-08-07T12:51:24.158Z,101823.84
2022-08-07T12:54:38.068Z,101822.63
2022-08-07T12:57:09.751Z,101831.44
2022-08-07T12:59:54.660Z,101825.00
2022-08-07T13:02:47.133Z,101820.81
2022-08-07T13:06:03.627Z,101828.63
2022-08-07T13:08:18.734Z,101823.75
2022-08-07T13:11:14.227Z,101819.72
2022-08-07T13:14:07.031Z,101817.34
2022-08-07T13:17:01.018Z,101823.97
2022-08-07T13:19:51.119Z,101804.41
2022-08-07T13:22:32.747Z,101815.16
2022-08-07T13:25:24.288Z,101803.25
2022-08-07T13:28:13.454Z,101804.75
2022-08-07T13:30:48.876Z,101807.63
2022-08-07T13:34:33.887Z,101797.97
2022-08-07T13:37:02.351Z,101791.78
2022-08-07T13:40:35.644Z,101793.19
2022-08-07T13:42:40.019Z,101788.44
2022-08-07T13:45:20.961Z,101781.09
2022-08-07T13:48:06.109Z,101792.91
2022-08-07T13:50:44.915Z,101797.28
2022-08-07T13:53:26.419Z,101784.91
2022-08-07T13:56:03.959Z,101777.22
2022-08-07T13:58:56.801Z,101772.06
2022-08-07T14:01:26.348Z,101777.91
2022-08-07T14:04:06.929Z,101766.34
2022-08-07T14:06:38.541Z,101765.13
2022-08-07T14:09:07.191Z,101762.88
2022-08-07T14:11:53.654Z,101763.03
2022-08-07T14:14:39.940Z,101755.50
2022-08-07T14:17:13.035Z,101753.78
2022-08-07T14:20:41.999Z,101751.91
2022-08-07T14:23:03.099Z,101750.03
2022-08-07T14:25:39.427Z,101743.88
2022-08-07T14:28:14.826Z,101754.88
2022-08-07T14:30:47.033Z,101746.78
2022-08-07T14:33:23.500Z,101749.34
2022-08-07T14:35:55.929Z,101748.69
2022-08-07T14:38:31.260Z,101744.88
2022-08-07T14:44:18.776Z,101744.28
2022-08-07T14:46:52.064Z,101734.00
2022-08-07T14:49:58.538Z,101728.72
2022-08-07T14:55:17.769Z,101726.94
2022-08-07T14:57:58.684Z,101731.13
2022-08-07T15:00:31.156Z,101740.66
2022-08-07T15:03:18.821Z,101738.25
2022-08-07T15:05:54.174Z,101724.63
2022-08-07T15:08:32.391Z,101724.56
2022-08-07T15:11:06.697Z,101722.22
2022-08-07T15:13:37.493Z,101728.09
2022-08-07T15:16:11.145Z,101719.16
2022-08-07T15:18:57.419Z,101727.84
2022-08-07T15:21:44.452Z,101727.72
2022-08-07T15:25:13.028Z,101728.78
2022-08-07T15:27:19.144Z,101728.19
2022-08-07T15:30:09.205Z,101733.78
2022-08-07T15:36:00.759Z,101715.63
2022-08-07T15:38:31.036Z,101722.16
2022-08-07T15:41:24.214Z,101713.13
2022-08-07T15:44:10.699Z,101713.41
2022-08-07T15:46:51.790Z,101709.75
2022-08-07T15:50:04.397Z,101703.13
2022-08-07T15:52:17.036Z,101704.03
2022-08-07T15:54:48.254Z,101703.25
2022-08-07T15:57:39.482Z,101703.94
2022-08-07T16:00:08.698Z,101701.25
2022-08-07T16:02:57.481Z,101702.06
2022-08-07T16:05:31.339Z,101696.31
2022-08-07T16:08:30.668Z,101697.19
2022-08-07T16:11:03.372Z,101699.34
2022-08-07T16:13:58.707Z,101706.56
2022-08-07T16:16:43.405Z,101693.94
2022-08-07T16:19:42.096Z,101687.31
2022-08-07T16:22:37.939Z,101678.25
2022-08-07T16:25:27.718Z,101687.56
2022-08-07T16:30:07.141Z,101697.56
2022-08-07T16:31:50.875Z,101697.84
2022-08-07T16:34:48.399Z,101694.41
2022-08-07T16:38:03.724Z,101690.94
2022-08-07T16:40:30.782Z,101679.84
2022-08-07T16:43:13.611Z,101690.56
2022-08-07T16:46:41.049Z,101679.63
2022-08-07T16:50:20.147Z,101683.31
2022-08-07T16:52:57.471Z,101691.16
2022-08-07T16:55:47.062Z,101692.97
2022-08-07T16:58:22.505Z,101686.31
2022-08-07T17:01:10.195Z,101689.47
2022-08-07T17:04:10.256Z,101692.47
2022-08-07T17:07:03.329Z,101697.03
2022-08-07T17:10:05.086Z,101688.78
2022-08-07T17:13:00.885Z,101685.13
2022-08-07T17:15:44.499Z,101690.69
2022-08-07T17:18:29.855Z,101686.56
2022-08-07T17:20:56.499Z,101686.16
2022-08-07T17:23:22.931Z,101690.91
2022-08-07T17:26:23.963Z,101692.75
2022-08-07T17:30:14.010Z,101688.59
2022-08-07T17:32:35.366Z,101695.34
2022-08-07T17:35:51.176Z,101693.00
2022-08-07T17:38:33.554Z,101692.34
2022-08-07T17:42:04.984Z,101691.88
2022-08-07T17:44:33.218Z,101692.25
2022-08-07T17:47:08.269Z,101690.63
2022-08-07T17:49:44.869Z,101686.75
2022-08-07T17:52:30.631Z,101689.16
2022-08-07T17:55:55.694Z,101693.03
2022-08-07T17:58:30.164Z,101695.91
2022-08-07T18:00:59.528Z,101694.97
2022-08-07T18:04:04.111Z,101696.63
2022-08-07T18:06:37.187Z,101693.94
2022-08-07T18:09:06.577Z,101699.13
2022-08-07T18:12:06.953Z,101701.94
2022-08-07T18:14:44.981Z,101713.00
2022-08-07T18:18:47.398Z,101708.34
2022-08-07T18:21:09.924Z,101707.94
2022-08-07T18:23:43.676Z,101713.03
2022-08-07T18:26:22.885Z,101717.34
2022-08-07T18:30:05.802Z,101718.09
2022-08-07T18:32:46.372Z,101725.34
2022-08-07T18:35:51.948Z,101734.28
2022-08-07T18:40:08.818Z,101730.16
2022-08-07T18:42:16.371Z,101731.19
2022-08-07T18:45:43.415Z,101732.91
2022-08-07T18:48:04.114Z,101733.66
2022-08-07T18:50:57.273Z,101749.41
2022-08-07T18:53:46.037Z,101741.47
2022-08-07T18:57:06.164Z,101730.59
2022-08-07T19:00:04.368Z,101739.34
2022-08-07T19:03:35.595Z,101746.00
2022-08-07T19:06:33.727Z,101754.44
2022-08-07T19:09:56.761Z,101760.47
2022-08-07T19:12:48.837Z,101747.94
2022-08-07T19:16:03.229Z,101756.66
2022-08-07T19:18:53.595Z,101759.66
2022-08-07T19:21:51.489Z,101763.84
2022-08-07T19:24:34.254Z,101765.59
2022-08-07T19:28:58.621Z,101770.97
2022-08-07T19:31:05.189Z,101771.50
2022-08-07T19:32:51.420Z,101776.34
2022-08-07T19:35:22.488Z,101781.34
2022-08-07T19:37:57.806Z,101788.34
2022-08-07T19:40:34.721Z,101791.03
2022-08-07T19:43:09.607Z,101786.06
2022-08-07T19:46:07.575Z,101790.91
2022-08-07T19:48:42.999Z,101798.75
2022-08-07T19:51:20.374Z,101802.59
2022-08-07T19:54:32.023Z,101802.63
2022-08-07T19:57:56.875Z,101798.97
2022-08-07T19:59:41.975Z,101797.53
2022-08-07T20:02:19.734Z,101798.53
2022-08-07T20:04:50.159Z,101793.25
2022-08-07T20:07:23.707Z,101795.72
2022-08-07T20:10:35.746Z,101801.53
2022-08-07T20:12:45.533Z,101805.38
2022-08-07T20:15:22.324Z,101803.38
2022-08-07T20:18:01.324Z,101810.03
2022-08-07T20:20:31.694Z,101801.34
2022-08-07T20:23:10.982Z,101795.53
2022-08-07T20:25:53.464Z,101802.81
2022-08-07T20:28:29.251Z,101809.28
2022-08-07T20:30:56.523Z,101810.41
2022-08-07T20:33:36.607Z,101809.88
2022-08-07T20:36:08.991Z,101814.69
2022-08-07T20:38:59.909Z,101811.66
2022-08-07T20:41:28.269Z,101800.56
2022-08-07T20:44:02.240Z,101803.69
2022-08-07T20:46:42.835Z,101805.00
2022-08-07T20:50:00.394Z,101804.47
2022-08-07T20:51:59.262Z,101810.13
2022-08-07T20:54:29.717Z,101814.91
2022-08-07T20:57:01.293Z,101811.75
2022-08-07T21:00:04.400Z,101817.84
2022-08-07T21:02:41.363Z,101810.03
2022-08-07T21:05:43.090Z,101819.16
2022-08-07T21:08:14.748Z,101812.66
2022-08-07T21:10:43.626Z,101826.53
2022-08-07T21:13:14.013Z,101824.69
2022-08-07T21:15:47.647Z,101830.59
2022-08-07T21:18:29.752Z,101820.91
2022-08-07T21:21:01.599Z,101824.16
2022-08-07T21:23:49.262Z,101818.50
2022-08-07T21:26:43.625Z,101819.78
2022-08-07T21:29:18.363Z,101822.22
2022-08-07T21:32:46.645Z,101820.72
2022-08-07T21:34:58.074Z,101830.13
2022-08-07T21:37:58.422Z,101832.25
2022-08-07T21:40:43.637Z,101834.69
2022-08-07T21:43:23.057Z,101845.06
2022-08-07T21:46:25.042Z,101842.03
2022-08-07T21:49:21.005Z,101845.28
2022-08-07T21:52:09.027Z,101837.94
2022-08-07T21:55:10.326Z,101847.47
2022-08-07T21:57:59.175Z,101850.44
2022-08-07T22:00:26.556Z,101852.38
2022-08-07T22:03:03.607Z,101846.53
2022-08-07T22:05:46.115Z,101848.78
2022-08-07T22:08:19.708Z,101860.50
2022-08-07T22:10:50.900Z,101855.66
2022-08-07T22:13:24.025Z,101855.44
2022-08-07T22:16:43.042Z,101864.34
2022-08-07T22:19:08.428Z,101855.16
2022-08-07T22:22:04.345Z,101852.00
2022-08-07T22:24:55.525Z,101858.69
2022-08-07T22:28:08.024Z,101860.97
2022-08-07T22:30:40.256Z,101857.63
2022-08-07T22:33:12.319Z,101871.13
2022-08-07T22:36:23.761Z,101864.31
2022-08-07T22:39:04.935Z,101861.28
2022-08-07T22:42:04.218Z,101864.25
2022-08-07T22:44:34.458Z,101872.63
2022-08-07T22:47:34.234Z,101871.22
2022-08-07T22:50:00.697Z,101871.66
2022-08-07T22:52:48.741Z,101873.63
2022-08-07T22:55:38.162Z,101862.19
2022-08-07T22:58:27.673Z,101870.44
2022-08-07T23:01:05.372Z,101871.00
2022-08-07T23:03:59.091Z,101869.47
2022-08-07T23:07:39.646Z,101872.53
2022-08-07T23:10:41.994Z,101867.41
2022-08-07T23:13:49.176Z,101872.41
2022-08-07T23:16:46.419Z,101873.66
2022-08-07T23:19:58.531Z,101865.28
2022-08-07T23:22:42.343Z,101874.09
2022-08-07T23:25:39.000Z,101868.66
2022-08-07T23:28:30.489Z,101877.84
2022-08-07T23:31:13.707Z,101875.75
2022-08-07T23:34:34.648Z,101874.09
2022-08-07T23:36:44.491Z,101871.59
2022-08-07T23:40:10.603Z,101872.16
2022-08-07T23:42:45.857Z,101873.38
2022-08-07T23:45:33.122Z,101879.09
2022-08-07T23:48:32.947Z,101870.47
2022-08-07T23:53:05.980Z,101870.47
2022-08-07T23:54:36.211Z,101876.88
2022-08-07T23:57:30.523Z,101878.13
